sensor_id;sensor_type;location;lat;lon;timestamp;pressure;altitude;pressure_sealevel;temperature;humidity
19797;BME280;10058;57.654;12.044;2023-02-28T00:02:14;102525.88;;;0.16;100.00
19797;BME280;10058;57.654;12.044;2023-02-28T00:04:39;102522.66;;;0.10;100.00
19797;BME280;10058;57.654;12.044;2023-02-28T00:07:04;102525.72;;;0.06;100.00
19797;BME280;10058;57.654;12.044;2023-02-28T00:09:30;102532.47;;;-0.05;100.00
19797;BME280;10058;57.654;12.044;2023-02-28T00:11:55;102525.03;;;-0.28;100.00
19797;BME280;10058;57.654;12.044;2023-02-28T00:14:20;102531.31;;;-0.43;100.00
19797;BME280;10058;57.654;12.044;2023-02-28T00:16:46;102519.53;;;-0.48;100.00
19797;BME280;10058;57.654;12.044;2023-02-28T00:19:11;102520.59;;;-0.29;100.00
19797;BME280;10058;57.654;12.044;2023-02-28T00:21:38;102520.59;;;-0.20;100.00
19797;BME280;10058;57.654;12.044;2023-02-28T00:24:06;102524.53;;;-0.07;100.00
19797;BME280;10058;57.654;12.044;2023-02-28T00:26:31;102518.13;;;-0.02;100.00
19797;BME280;10058;57.654;12.044;2023-02-28T00:28:57;102522.41;;;-0.11;100.00
19797;BME280;10058;57.654;12.044;2023-02-28T00:31:22;102528.50;;;-0.10;100.00
19797;BME280;10058;57.654;12.044;2023-02-28T00:33:48;102522.13;;;-0.22;100.00
19797;BME280;10058;57.654;12.044;2023-02-28T00:36:13;102525.19;;;-0.18;100.00
19797;BME280;10058;57.654;12.044;2023-02-28T00:38:39;102524.88;;;-0.21;100.00
19797;BME280;10058;57.654;12.044;2023-02-28T00:41:05;102507.75;;;-0.27;100.00
19797;BME280;10058;57.654;12.044;2023-02-28T00:43:32;102517.22;;;-0.28;100.00
19797;BME280;10058;57.654;12.044;2023-02-28T00:45:58;102519.81;;;-0.28;100.00
19797;BME280;10058;57.654;12.044;2023-02-28T00:48:23;102514.19;;;-0.24;100.00
19797;BME280;10058;57.654;12.044;2023-02-28T00:50:49;102501.94;;;-0.25;100.00
19797;BME280;10058;57.654;12.044;2023-02-28T00:53:15;102518.16;;;-0.19;100.00
19797;BME280;10058;57.654;12.044;2023-02-28T00:55:40;102516.63;;;-0.34;100.00
19797;BME280;10058;57.654;12.044;2023-02-28T00:58:05;102510.06;;;-0.39;100.00
19797;BME280;10058;57.654;12.044;2023-02-28T01:00:30;102515.69;;;-0.35;100.00
19797;BME280;10058;57.654;12.044;2023-02-28T01:02:56;102523.06;;;-0.39;100.00
19797;BME280;10058;57.654;12.044;2023-02-28T01:05:21;102523.81;;;-0.40;100.00
19797;BME280;10058;57.654;12.044;2023-02-28T01:07:46;102519.38;;;-0.41;100.00
19797;BME280;10058;57.654;12.044;2023-02-28T01:10:11;102519.38;;;-0.41;100.00
19797;BME280;10058;57.654;12.044;2023-02-28T01:12:37;102513.91;;;-0.36;100.00
19797;BME280;10058;57.654;12.044;2023-02-28T01:15:03;102515.56;;;-0.36;100.00
19797;BME280;10058;57.654;12.044;2023-02-28T01:17:28;102512.03;;;-0.28;100.00
19797;BME280;10058;57.654;12.044;2023-02-28T01:19:54;102510.19;;;-0.29;100.00
19797;BME280;10058;57.654;12.044;2023-02-28T01:22:20;102515.41;;;-0.29;100.00
19797;BME280;10058;57.654;12.044;2023-02-28T01:24:46;102509.31;;;-0.38;100.00
19797;BME280;10058;57.654;12.044;2023-02-28T01:27:11;102451.59;;;-0.70;100.00
19797;BME280;10058;57.654;12.044;2023-02-28T01:29:36;102509.00;;;-0.41;100.00
19797;BME280;10058;57.654;12.044;2023-02-28T01:32:02;102501.63;;;-0.28;100.00
19797;BME280;10058;57.654;12.044;2023-02-28T01:34:27;102458.91;;;-0.57;100.00
19797;BME280;10058;57.654;12.044;2023-02-28T01:36:52;102500.72;;;-0.20;100.00
19797;BME280;10058;57.654;12.044;2023-02-28T01:39:18;102503.78;;;-0.24;100.00
19797;BME280;10058;57.654;12.044;2023-02-28T01:41:44;102484.84;;;-0.40;100.00
19797;BME280;10058;57.654;12.044;2023-02-28T01:47:12;102497.22;;;-0.46;100.00
19797;BME280;10058;57.654;12.044;2023-02-28T01:49:39;102501.84;;;-0.52;100.00
19797;BME280;10058;57.654;12.044;2023-02-28T01:52:04;102502.28;;;-0.56;100.00
19797;BME280;10058;57.654;12.044;2023-02-28T01:54:31;102496.47;;;-0.62;100.00
19797;BME280;10058;57.654;12.044;2023-02-28T01:57:05;102495.72;;;-0.61;100.00
19797;BME280;10058;57.654;12.044;2023-02-28T01:59:35;102497.41;;;-0.62;100.00
19797;BME280;10058;57.654;12.044;2023-02-28T02:02:03;102473.72;;;-0.74;100.00
19797;BME280;10058;57.654;12.044;2023-02-28T02:04:37;102489.91;;;-0.67;100.00
19797;BME280;10058;57.654;12.044;2023-02-28T02:07:03;102490.69;;;-0.77;100.00
19797;BME280;10058;57.654;12.044;2023-02-28T02:09:28;102488.38;;;-0.83;100.00
19797;BME280;10058;57.654;12.044;2023-02-28T02:11:55;102483.19;;;-0.74;100.00
19797;BME280;10058;57.654;12.044;2023-02-28T02:14:36;102468.97;;;-0.69;100.00
19797;BME280;10058;57.654;12.044;2023-02-28T02:17:27;102476.47;;;-0.63;100.00
19797;BME280;10058;57.654;12.044;2023-02-28T02:28:44;102468.97;;;-0.60;100.00
19797;BME280;10058;57.654;12.044;2023-02-28T02:31:33;102479.69;;;-0.57;100.00
19797;BME280;10058;57.654;12.044;2023-02-28T02:36:51;102466.25;;;-0.71;100.00
19797;BME280;10058;57.654;12.044;2023-02-28T02:41:56;102456.16;;;-1.02;100.00
19797;BME280;10058;57.654;12.044;2023-02-28T02:44:28;102461.66;;;-0.90;100.00
19797;BME280;10058;57.654;12.044;2023-02-28T02:47:05;102463.16;;;-1.01;100.00
19797;BME280;10058;57.654;12.044;2023-02-28T02:49:36;102465.00;;;-1.00;100.00
19797;BME280;10058;57.654;12.044;2023-02-28T02:52:04;102450.69;;;-1.05;100.00
19797;BME280;10058;57.654;12.044;2023-02-28T02:54:35;102457.41;;;-0.90;100.00
19797;BME280;10058;57.654;12.044;2023-02-28T02:57:05;102444.56;;;-0.97;100.00
19797;BME280;10058;57.654;12.044;2023-02-28T02:59:35;102463.50;;;-0.89;100.00
19797;BME280;10058;57.654;12.044;2023-02-28T03:02:04;102459.22;;;-0.89;100.00
19797;BME280;10058;57.654;12.044;2023-02-28T03:04:36;102459.22;;;-0.89;100.00
19797;BME280;10058;57.654;12.044;2023-02-28T03:07:03;102452.22;;;-0.90;100.00
19797;BME280;10058;57.654;12.044;2023-02-28T03:09:28;102458.16;;;-0.91;100.00
19797;BME280;10058;57.654;12.044;2023-02-28T03:11:56;102448.22;;;-0.95;100.00
19797;BME280;10058;57.654;12.044;2023-02-28T03:17:25;102454.03;;;-0.89;100.00
19797;BME280;10058;57.654;12.044;2023-02-28T03:20:04;102453.09;;;-0.81;100.00
19797;BME280;10058;57.654;12.044;2023-02-28T03:25:30;102459.50;;;-0.86;100.00
19797;BME280;10058;57.654;12.044;2023-02-28T03:28:21;102459.81;;;-1.00;100.00
19797;BME280;10058;57.654;12.044;2023-02-28T03:30:51;102461.06;;;-0.88;100.00
19797;BME280;10058;57.654;12.044;2023-02-28T03:33:21;102474.19;;;-0.95;100.00
19797;BME280;10058;57.654;12.044;2023-02-28T03:35:55;102469.88;;;-1.03;100.00
19797;BME280;10058;57.654;12.044;2023-02-28T03:38:39;102466.25;;;-1.05;100.00
19797;BME280;10058;57.654;12.044;2023-02-28T03:41:18;102464.09;;;-1.09;100.00
19797;BME280;10058;57.654;12.044;2023-02-28T03:43:50;102469.88;;;-1.03;100.00
19797;BME280;10058;57.654;12.044;2023-02-28T03:46:21;102451.88;;;-1.10;100.00
19797;BME280;10058;57.654;12.044;2023-02-28T03:49:13;102456.16;;;-1.11;100.00
19797;BME280;10058;57.654;12.044;2023-02-28T03:51:41;102462.81;;;-1.38;100.00
19797;BME280;10058;57.654;12.044;2023-02-28T03:54:16;102460.81;;;-1.50;100.00
19797;BME280;10058;57.654;12.044;2023-02-28T03:56:59;102432.59;;;-1.47;100.00
19797;BME280;10058;57.654;12.044;2023-02-28T03:59:30;102453.34;;;-1.38;100.00
19797;BME280;10058;57.654;12.044;2023-02-28T04:01:59;102456.75;;;-1.30;100.00
19797;BME280;10058;57.654;12.044;2023-02-28T04:04:24;102461.78;;;-1.23;100.00
19797;BME280;10058;57.654;12.044;2023-02-28T04:06:51;102462.72;;;-1.14;100.00
19797;BME280;10058;57.654;12.044;2023-02-28T04:09:17;102463.16;;;-1.18;100.00
19797;BME280;10058;57.654;12.044;2023-02-28T04:11:50;102464.38;;;-1.23;100.00
19797;BME280;10058;57.654;12.044;2023-02-28T04:14:17;102470.66;;;-1.21;100.00
19797;BME280;10058;57.654;12.044;2023-02-28T04:16:42;102458.88;;;-1.26;100.00
19797;BME280;10058;57.654;12.044;2023-02-28T04:19:09;102470.19;;;-1.26;100.00
19797;BME280;10058;57.654;12.044;2023-02-28T04:21:38;102466.97;;;-1.23;100.00
19797;BME280;10058;57.654;12.044;2023-02-28T04:24:12;102462.56;;;-1.24;100.00
19797;BME280;10058;57.654;12.044;2023-02-28T04:26:43;102460.72;;;-1.25;100.00
19797;BME280;10058;57.654;12.044;2023-02-28T04:29:09;102468.03;;;-1.30;100.00
19797;BME280;10058;57.654;12.044;2023-02-28T04:31:35;102467.44;;;-1.27;100.00
19797;BME280;10058;57.654;12.044;2023-02-28T04:34:00;102461.59;;;-1.33;100.00
19797;BME280;10058;57.654;12.044;2023-02-28T04:36:26;102461.59;;;-1.33;100.00
19797;BME280;10058;57.654;12.044;2023-02-28T04:38:51;102461.44;;;-1.35;100.00
19797;BME280;10058;57.654;12.044;2023-02-28T04:41:17;102459.59;;;-1.45;100.00
19797;BME280;10058;57.654;12.044;2023-02-28T04:43:42;102455.81;;;-1.39;100.00
19797;BME280;10058;57.654;12.044;2023-02-28T04:46:08;102457.19;;;-1.34;100.00
19797;BME280;10058;57.654;12.044;2023-02-28T04:48:36;102460.09;;;-1.31;100.00
19797;BME280;10058;57.654;12.044;2023-02-28T04:51:04;102448.16;;;-1.47;100.00
19797;BME280;10058;57.654;12.044;2023-02-28T04:53:30;102461.13;;;-1.47;100.00
19797;BME280;10058;57.654;12.044;2023-02-28T04:55:56;102459.56;;;-1.62;100.00
19797;BME280;10058;57.654;12.044;2023-02-28T04:58:22;102444.13;;;-1.69;100.00
19797;BME280;10058;57.654;12.044;2023-02-28T05:00:51;102455.47;;;-1.51;100.00
19797;BME280;10058;57.654;12.044;2023-02-28T05:03:17;102460.03;;;-1.57;100.00
19797;BME280;10058;57.654;12.044;2023-02-28T05:05:42;102455.88;;;-1.64;100.00
19797;BME280;10058;57.654;12.044;2023-02-28T05:08:07;102459.06;;;-1.75;100.00
19797;BME280;10058;57.654;12.044;2023-02-28T05:10:34;102470.03;;;-1.69;100.00
19797;BME280;10058;57.654;12.044;2023-02-28T05:13:00;102465.81;;;-1.60;100.00
19797;BME280;10058;57.654;12.044;2023-02-28T05:15:25;102451.03;;;-1.52;100.00
19797;BME280;10058;57.654;12.044;2023-02-28T05:17:50;102447.84;;;-1.50;100.00
19797;BME280;10058;57.654;12.044;2023-02-28T05:20:16;102448.78;;;-1.41;100.00
19797;BME280;10058;57.654;12.044;2023-02-28T05:22:42;102453.34;;;-1.47;100.00
19797;BME280;10058;57.654;12.044;2023-02-28T05:25:11;102456.06;;;-1.54;100.00
19797;BME280;10058;57.654;12.044;2023-02-28T05:27:37;102457.13;;;-1.60;100.00
19797;BME280;10058;57.654;12.044;2023-02-28T05:30:02;102462.28;;;-1.69;100.00
19797;BME280;10058;57.654;12.044;2023-02-28T05:32:29;102458.75;;;-1.78;100.00
19797;BME280;10058;57.654;12.044;2023-02-28T05:34:54;102449.09;;;-1.88;100.00
19797;BME280;10058;57.654;12.044;2023-02-28T05:37:20;102454.75;;;-1.83;100.00
19797;BME280;10058;57.654;12.044;2023-02-28T05:39:46;102451.41;;;-1.82;100.00
19797;BME280;10058;57.654;12.044;2023-02-28T05:42:11;102445.97;;;-1.68;100.00
19797;BME280;10058;57.654;12.044;2023-02-28T05:44:37;102444.75;;;-1.63;100.00
19797;BME280;10058;57.654;12.044;2023-02-28T05:47:02;102444.75;;;-1.63;100.00
19797;BME280;10058;57.654;12.044;2023-02-28T05:49:27;102435.31;;;-1.62;100.00
19797;BME280;10058;57.654;12.044;2023-02-28T05:51:53;102434.41;;;-1.63;100.00
19797;BME280;10058;57.654;12.044;2023-02-28T05:54:18;102425.09;;;-1.61;100.00
19797;BME280;10058;57.654;12.044;2023-02-28T05:56:43;102435.47;;;-1.61;100.00
19797;BME280;10058;57.654;12.044;2023-02-28T05:59:13;102429.22;;;-1.63;100.00
19797;BME280;10058;57.654;12.044;2023-02-28T06:01:43;102426.63;;;-1.63;100.00
19797;BME280;10058;57.654;12.044;2023-02-28T06:04:17;102431.47;;;-1.66;100.00
19797;BME280;10058;57.654;12.044;2023-02-28T06:06:45;102431.91;;;-1.70;100.00
19797;BME280;10058;57.654;12.044;2023-02-28T06:09:10;102428.88;;;-1.66;100.00
19797;BME280;10058;57.654;12.044;2023-02-28T06:11:35;102426.19;;;-1.59;100.00
19797;BME280;10058;57.654;12.044;2023-02-28T06:14:01;102431.66;;;-1.56;100.00
19797;BME280;10058;57.654;12.044;2023-02-28T06:16:28;102434.41;;;-1.54;100.00
19797;BME280;10058;57.654;12.044;2023-02-28T06:18:54;102435.03;;;-1.57;100.00
19797;BME280;10058;57.654;12.044;2023-02-28T06:21:21;102433.78;;;-1.52;100.00
19797;BME280;10058;57.654;12.044;2023-02-28T06:23:47;102426.47;;;-1.56;100.00
19797;BME280;10058;57.654;12.044;2023-02-28T06:26:12;102435.31;;;-1.62;100.00
19797;BME280;10058;57.654;12.044;2023-02-28T06:28:38;102430.13;;;-1.54;100.00
19797;BME280;10058;57.654;12.044;2023-02-28T06:31:07;102441.28;;;-1.46;100.00
19797;BME280;10058;57.654;12.044;2023-02-28T06:33:33;102441.78;;;-1.42;100.00
19797;BME280;10058;57.654;12.044;2023-02-28T06:35:59;102447.00;;;-1.24;100.00
19797;BME280;10058;57.654;12.044;2023-02-28T06:38:24;102446.66;;;-1.19;100.00
19797;BME280;10058;57.654;12.044;2023-02-28T06:40:56;102434.34;;;-1.21;100.00
19797;BME280;10058;57.654;12.044;2023-02-28T06:43:22;102453.41;;;-1.12;100.00
19797;BME280;10058;57.654;12.044;2023-02-28T06:45:48;102475.38;;;-1.17;100.00
19797;BME280;10058;57.654;12.044;2023-02-28T06:48:13;102476.00;;;-1.11;100.00
19797;BME280;10058;57.654;12.044;2023-02-28T06:50:39;102482.44;;;-0.90;100.00
19797;BME280;10058;57.654;12.044;2023-02-28T06:53:04;102467.91;;;-0.97;100.00
19797;BME280;10058;57.654;12.044;2023-02-28T06:55:30;102481.66;;;-0.81;100.00
19797;BME280;10058;57.654;12.044;2023-02-28T06:57:55;102478.78;;;-0.75;100.00
19797;BME280;10058;57.654;12.044;2023-02-28T07:00:21;102483.97;;;-0.75;100.00
19797;BME280;10058;57.654;12.044;2023-02-28T07:02:46;102493.75;;;-0.55;100.00
19797;BME280;10058;57.654;12.044;2023-02-28T07:05:12;102493.56;;;-0.65;100.00
19797;BME280;10058;57.654;12.044;2023-02-28T07:07:38;102498.00;;;-0.56;100.00
19797;BME280;10058;57.654;12.044;2023-02-28T07:10:06;102497.84;;;-0.40;100.00
19797;BME280;10058;57.654;12.044;2023-02-28T07:12:31;102494.31;;;-0.32;100.00
19797;BME280;10058;57.654;12.044;2023-02-28T07:14:57;102501.00;;;-0.17;100.00
19797;BME280;10058;57.654;12.044;2023-02-28T07:17:22;102507.06;;;0.01;100.00
19797;BME280;10058;57.654;12.044;2023-02-28T07:19:47;102492.38;;;0.10;100.00
19797;BME280;10058;57.654;12.044;2023-02-28T07:22:12;102504.00;;;0.14;100.00
19797;BME280;10058;57.654;12.044;2023-02-28T07:24:38;102500.56;;;0.32;100.00
19797;BME280;10058;57.654;12.044;2023-02-28T07:27:03;102510.91;;;0.49;100.00
19797;BME280;10058;57.654;12.044;2023-02-28T07:29:28;102495.84;;;0.55;100.00
19797;BME280;10058;57.654;12.044;2023-02-28T07:31:54;102508.69;;;0.62;100.00
19797;BME280;10058;57.654;12.044;2023-02-28T07:34:20;102508.47;;;0.69;100.00
19797;BME280;10058;57.654;12.044;2023-02-28T07:36:45;102509.28;;;0.68;100.00
19797;BME280;10058;57.654;12.044;2023-02-28T07:39:10;102507.44;;;0.67;100.00
19797;BME280;10058;57.654;12.044;2023-02-28T07:41:36;102508.06;;;0.65;100.00
19797;BME280;10058;57.654;12.044;2023-02-28T07:44:08;102506.16;;;0.73;100.00
19797;BME280;10058;57.654;12.044;2023-02-28T07:46:33;102501.44;;;0.96;100.00
19797;BME280;10058;57.654;12.044;2023-02-28T07:49:00;102495.81;;;1.10;100.00
19797;BME280;10058;57.654;12.044;2023-02-28T07:51:28;102508.41;;;1.24;100.00
19797;BME280;10058;57.654;12.044;2023-02-28T07:53:53;102499.91;;;1.35;100.00
19797;BME280;10058;57.654;12.044;2023-02-28T07:56:18;102501.38;;;1.42;100.00
19797;BME280;10058;57.654;12.044;2023-02-28T07:58:44;102493.22;;;1.48;100.00
19797;BME280;10058;57.654;12.044;2023-02-28T08:01:10;102494.31;;;1.60;100.00
19797;BME280;10058;57.654;12.044;2023-02-28T08:03:37;102496.44;;;1.64;100.00
19797;BME280;10058;57.654;12.044;2023-02-28T08:06:04;102503.50;;;1.75;100.00
19797;BME280;10058;57.654;12.044;2023-02-28T08:08:30;102492.25;;;1.85;100.00
19797;BME280;10058;57.654;12.044;2023-02-28T08:10:59;102488.75;;;1.94;100.00
19797;BME280;10058;57.654;12.044;2023-02-28T08:13:25;102489.09;;;2.07;100.00
19797;BME280;10058;57.654;12.044;2023-02-28T08:15:52;102498.03;;;2.01;100.00
19797;BME280;10058;57.654;12.044;2023-02-28T08:18:17;102487.06;;;1.95;100.00
19797;BME280;10058;57.654;12.044;2023-02-28T08:20:42;102487.56;;;2.20;100.00
19797;BME280;10058;57.654;12.044;2023-02-28T08:23:07;102486.28;;;2.35;100.00
19797;BME280;10058;57.654;12.044;2023-02-28T08:25:33;102488.53;;;2.51;100.00
19797;BME280;10058;57.654;12.044;2023-02-28T08:27:58;102486.75;;;2.60;100.00
19797;BME280;10058;57.654;12.044;2023-02-28T08:30:23;102483.44;;;2.62;100.00
19797;BME280;10058;57.654;12.044;2023-02-28T08:32:49;102488.19;;;2.76;100.00
19797;BME280;10058;57.654;12.044;2023-02-28T08:35:14;102477.59;;;2.85;100.00
19797;BME280;10058;57.654;12.044;2023-02-28T08:37:39;102476.81;;;2.96;100.00
19797;BME280;10058;57.654;12.044;2023-02-28T08:40:05;102463.63;;;2.95;100.00
19797;BME280;10058;57.654;12.044;2023-02-28T08:42:32;102482.72;;;2.94;100.00
19797;BME280;10058;57.654;12.044;2023-02-28T08:44:57;102471.47;;;3.05;100.00
19797;BME280;10058;57.654;12.044;2023-02-28T08:47:22;102486.59;;;3.19;100.00
19797;BME280;10058;57.654;12.044;2023-02-28T08:49:48;102477.72;;;3.17;100.00
19797;BME280;10058;57.654;12.044;2023-02-28T08:52:13;102487.41;;;3.28;100.00
19797;BME280;10058;57.654;12.044;2023-02-28T08:54:38;102479.81;;;3.21;100.00
19797;BME280;10058;57.654;12.044;2023-02-28T08:57:04;102494.03;;;3.35;100.00
19797;BME280;10058;57.654;12.044;2023-02-28T08:59:29;102492.84;;;3.31;100.00
19797;BME280;10058;57.654;12.044;2023-02-28T09:01:54;102450.03;;;2.99;100.00
19797;BME280;10058;57.654;12.044;2023-02-28T09:04:20;102495.50;;;3.21;100.00
19797;BME280;10058;57.654;12.044;2023-02-28T09:06:45;102496.78;;;3.36;100.00
19797;BME280;10058;57.654;12.044;2023-02-28T09:09:10;102496.13;;;3.39;100.00
19797;BME280;10058;57.654;12.044;2023-02-28T09:11:36;102501.47;;;3.30;100.00
19797;BME280;10058;57.654;12.044;2023-02-28T09:14:02;102498.34;;;3.44;100.00
19797;BME280;10058;57.654;12.044;2023-02-28T09:16:29;102513.03;;;3.64;100.00
19797;BME280;10058;57.654;12.044;2023-02-28T09:18:54;102511.81;;;3.81;100.00
19797;BME280;10058;57.654;12.044;2023-02-28T09:21:20;102511.28;;;3.85;100.00
19797;BME280;10058;57.654;12.044;2023-02-28T09:23:47;102509.72;;;3.87;100.00
19797;BME280;10058;57.654;12.044;2023-02-28T09:26:18;102505.25;;;3.96;100.00
19797;BME280;10058;57.654;12.044;2023-02-28T09:28:44;102512.78;;;4.03;100.00
19797;BME280;10058;57.654;12.044;2023-02-28T09:31:14;102508.06;;;4.09;100.00
19797;BME280;10058;57.654;12.044;2023-02-28T09:33:40;102511.72;;;4.11;100.00
19797;BME280;10058;57.654;12.044;2023-02-28T09:36:05;102505.13;;;4.16;100.00
19797;BME280;10058;57.654;12.044;2023-02-28T09:38:31;102499.34;;;3.99;100.00
19797;BME280;10058;57.654;12.044;2023-02-28T09:40:59;102508.59;;;4.15;100.00
19797;BME280;10058;57.654;12.044;2023-02-28T09:43:29;102502.00;;;4.20;100.00
19797;BME280;10058;57.654;12.044;2023-02-28T09:46:20;102497.88;;;4.02;100.00
19797;BME280;10058;57.654;12.044;2023-02-28T09:48:49;102502.06;;;4.10;100.00
19797;BME280;10058;57.654;12.044;2023-02-28T09:51:28;102493.75;;;4.16;100.00
19797;BME280;10058;57.654;12.044;2023-02-28T09:53:55;102500.41;;;4.23;100.00
19797;BME280;10058;57.654;12.044;2023-02-28T09:56:25;102496.16;;;4.35;100.00
19797;BME280;10058;57.654;12.044;2023-02-28T09:59:01;102501.22;;;4.43;100.00
19797;BME280;10058;57.654;12.044;2023-02-28T10:06:50;102507.38;;;4.44;100.00
19797;BME280;10058;57.654;12.044;2023-02-28T10:09:22;102518.56;;;4.53;100.00
19797;BME280;10058;57.654;12.044;2023-02-28T10:11:54;102507.41;;;4.55;100.00
19797;BME280;10058;57.654;12.044;2023-02-28T10:14:23;102514.97;;;4.63;100.00
19797;BME280;10058;57.654;12.044;2023-02-28T10:16:56;102521.06;;;4.73;100.00
19797;BME280;10058;57.654;12.044;2023-02-28T10:19:44;102513.94;;;4.82;100.00
19797;BME280;10058;57.654;12.044;2023-02-28T10:22:56;102515.13;;;4.98;100.00
19797;BME280;10058;57.654;12.044;2023-02-28T10:25:23;102503.91;;;4.88;100.00
19797;BME280;10058;57.654;12.044;2023-02-28T10:27:50;102504.56;;;5.08;100.00
19797;BME280;10058;57.654;12.044;2023-02-28T10:30:18;102500.94;;;5.17;100.00
19797;BME280;10058;57.654;12.044;2023-02-28T10:32:49;102501.06;;;5.31;100.00
19797;BME280;10058;57.654;12.044;2023-02-28T10:35:20;102498.56;;;5.32;100.00
19797;BME280;10058;57.654;12.044;2023-02-28T10:37:48;102506.19;;;5.29;100.00
19797;BME280;10058;57.654;12.044;2023-02-28T10:42:42;102517.91;;;5.11;100.00
19797;BME280;10058;57.654;12.044;2023-02-28T10:45:16;102523.03;;;4.87;100.00
19797;BME280;10058;57.654;12.044;2023-02-28T10:47:51;102526.78;;;5.13;100.00
19797;BME280;10058;57.654;12.044;2023-02-28T10:50:37;102519.72;;;5.12;100.00
19797;BME280;10058;57.654;12.044;2023-02-28T10:59:05;102517.25;;;5.25;100.00
19797;BME280;10058;57.654;12.044;2023-02-28T11:01:47;102503.81;;;5.32;100.00
19797;BME280;10058;57.654;12.044;2023-02-28T11:04:19;102511.34;;;5.39;100.00
19797;BME280;10058;57.654;12.044;2023-02-28T11:06:45;102504.97;;;5.36;100.00
19797;BME280;10058;57.654;12.044;2023-02-28T11:11:56;102515.03;;;5.65;100.00
19797;BME280;10058;57.654;12.044;2023-02-28T11:14:25;102506.38;;;5.89;100.00
19797;BME280;10058;57.654;12.044;2023-02-28T11:16:51;102503.75;;;5.89;100.00
19797;BME280;10058;57.654;12.044;2023-02-28T11:19:28;102502.47;;;5.84;100.00
19797;BME280;10058;57.654;12.044;2023-02-28T11:22:00;102494.84;;;5.99;100.00
19797;BME280;10058;57.654;12.044;2023-02-28T11:24:29;102492.44;;;5.90;100.00
19797;BME280;10058;57.654;12.044;2023-02-28T11:26:56;102488.56;;;6.08;100.00
19797;BME280;10058;57.654;12.044;2023-02-28T11:29:24;102486.50;;;6.16;100.00
19797;BME280;10058;57.654;12.044;2023-02-28T11:32:18;102480.78;;;6.21;100.00
19797;BME280;10058;57.654;12.044;2023-02-28T11:34:44;102470.34;;;6.35;100.00
19797;BME280;10058;57.654;12.044;2023-02-28T11:37:13;102469.63;;;6.49;100.00
19797;BME280;10058;57.654;12.044;2023-02-28T11:39:40;102465.16;;;6.48;100.00
19797;BME280;10058;57.654;12.044;2023-02-28T11:42:19;102453.91;;;6.62;100.00
19797;BME280;10058;57.654;12.044;2023-02-28T11:45:07;102461.44;;;6.69;100.00
19797;BME280;10058;57.654;12.044;2023-02-28T11:47:45;102455.38;;;6.70;100.00
19797;BME280;10058;57.654;12.044;2023-02-28T11:53:39;102455.41;;;6.83;100.00
19797;BME280;10058;57.654;12.044;2023-02-28T11:56:32;102450.59;;;6.89;100.00
19797;BME280;10058;57.654;12.044;2023-02-28T12:02:05;102449.03;;;7.18;100.00
19797;BME280;10058;57.654;12.044;2023-02-28T12:10:25;102440.16;;;7.55;100.00
19797;BME280;10058;57.654;12.044;2023-02-28T12:15:54;102413.44;;;7.62;100.00
19797;BME280;10058;57.654;12.044;2023-02-28T12:19:07;102417.56;;;7.85;100.00
19797;BME280;10058;57.654;12.044;2023-02-28T12:22:22;102426.69;;;7.90;100.00
19797;BME280;10058;57.654;12.044;2023-02-28T12:27:30;102414.59;;;8.07;100.00
19797;BME280;10058;57.654;12.044;2023-02-28T12:30:02;102416.63;;;8.11;100.00
19797;BME280;10058;57.654;12.044;2023-02-28T12:32:43;102409.88;;;8.16;100.00
19797;BME280;10058;57.654;12.044;2023-02-28T12:37:58;102397.09;;;8.35;100.00
19797;BME280;10058;57.654;12.044;2023-02-28T12:40:33;102392.41;;;8.45;100.00
19797;BME280;10058;57.654;12.044;2023-02-28T12:43:07;102387.50;;;8.51;100.00
19797;BME280;10058;57.654;12.044;2023-02-28T12:45:53;102389.53;;;8.55;100.00
19797;BME280;10058;57.654;12.044;2023-02-28T12:48:31;102388.09;;;8.60;100.00
19797;BME280;10058;57.654;12.044;2023-02-28T12:51:02;102382.41;;;8.39;100.00
19797;BME280;10058;57.654;12.044;2023-02-28T12:53:42;102386.84;;;8.40;100.00
19797;BME280;10058;57.654;12.044;2023-02-28T12:59:01;102370.19;;;8.84;100.00
19797;BME280;10058;57.654;12.044;2023-02-28T13:10:18;102350.47;;;8.77;100.00
19797;BME280;10058;57.654;12.044;2023-02-28T13:12:51;102352.38;;;8.94;100.00
19797;BME280;10058;57.654;12.044;2023-02-28T13:15:25;102353.28;;;9.10;100.00
19797;BME280;10058;57.654;12.044;2023-02-28T13:17:56;102352.03;;;9.18;100.00
19797;BME280;10058;57.654;12.044;2023-02-28T13:20:25;102351.09;;;9.02;100.00
19797;BME280;10058;57.654;12.044;2023-02-28T13:22:53;102362.47;;;9.16;100.00
19797;BME280;10058;57.654;12.044;2023-02-28T13:31:13;102347.06;;;9.24;100.00
19797;BME280;10058;57.654;12.044;2023-02-28T13:38:47;102343.34;;;9.35;100.00
19797;BME280;10058;57.654;12.044;2023-02-28T13:41:40;102338.53;;;9.28;100.00
19797;BME280;10058;57.654;12.044;2023-02-28T13:46:37;102323.75;;;9.46;100.00
19797;BME280;10058;57.654;12.044;2023-02-28T13:52:17;102335.72;;;9.25;100.00
19797;BME280;10058;57.654;12.044;2023-02-28T13:55:12;102333.34;;;9.29;100.00
19797;BME280;10058;57.654;12.044;2023-02-28T13:57:53;102331.31;;;9.40;100.00
19797;BME280;10058;57.654;12.044;2023-02-28T14:05:41;102322.06;;;9.32;100.00
19797;BME280;10058;57.654;12.044;2023-02-28T14:08:12;102311.69;;;9.35;100.00
19797;BME280;10058;57.654;12.044;2023-02-28T14:10:45;102314.66;;;9.41;100.00
19797;BME280;10058;57.654;12.044;2023-02-28T14:13:37;102324.38;;;9.42;100.00
19797;BME280;10058;57.654;12.044;2023-02-28T14:16:06;102323.78;;;9.62;100.00
19797;BME280;10058;57.654;12.044;2023-02-28T14:18:32;102318.25;;;9.58;100.00
19797;BME280;10058;57.654;12.044;2023-02-28T14:21:48;102306.41;;;9.35;100.00